Latest Weather Observations for Nambour

IDQ60801

Issued at 10:35 am EST Wednesday 26 November 2014 (issued every 30 minutes, with the page automatically refreshed every 10 minutes)

About weather observations | Map of weather stations | Latest weather observations for QLD | Other Formats
Station Details ID: 040988 Name: NAMBOUR DAFF - HILLSIDE Lat: -26.64 Lon: 152.94 Height: 53.24 m
Data from the previous 72 hours. | See also: Recent months at Nambour
Date/Time
EST
Temp
°C
App
Temp
°C
Dew
Point
Rel
Hum
%
Delta-T
°C
Wind Press
QNH
hPa
Press
MSL
hPa
Rain
since 9 am
mm
Dir
 
Spd
km/h
Gust
km/h
Spd
kts
Gust
kts
26/10:30am 28.0 28.1 17.5 52 6.6 ENE 13 24 7 13 1016.8 1016.6 0.0
26/10:00am 26.7 28.4 18.6 61 5.2 NNE 7 15 4 8 1017.1 1016.9 0.0
26/09:30am 26.7 28.1 18.6 61 5.2 ENE 9 15 5 8 1017.0 1016.8 0.0
26/09:00am 26.1 27.9 18.8 64 4.7 ENE 7 13 4 7 1017.2 1017.0 0.0
26/08:30am 25.4 27.1 19.3 69 3.9 NNE 9 17 5 9 1017.4 1017.2 0.0
26/08:00am 25.0 26.1 18.9 69 3.9 NNE 11 17 6 9 1017.3 1017.1 0.0
26/07:30am 24.7 26.6 19.8 74 3.2 N 9 15 5 8 1017.3 1017.1 0.0
26/07:00am 24.3 27.4 20.2 78 2.7 NNE 4 7 2 4 1017.0 1016.8 0.0
26/06:30am 23.7 27.3 20.6 83 2.0 NW 2 6 1 3 1016.8 1016.6 0.0
26/06:00am 23.0 27.2 20.9 88 1.4 CALM 0 4 0 2 1016.5 1016.3 0.0
26/05:30am 21.9 25.7 20.9 94 0.7 W 2 4 1 2 1016.3 1016.1 0.0
26/05:00am 21.3 25.1 20.1 93 0.8 CALM 0 0 0 0 1016.1 1015.9 0.0
26/04:30am 21.6 25.4 20.2 92 0.9 CALM 0 0 0 0 1015.8 1015.6 0.0
26/04:00am 21.9 25.9 20.5 92 0.9 CALM 0 0 0 0 1015.6 1015.4 0.0
26/03:30am 22.4 26.5 20.7 90 1.1 CALM 0 0 0 0 1015.5 1015.3 0.0
26/03:00am 22.8 27.0 20.9 89 1.2 CALM 0 2 0 1 1015.3 1015.1 0.0
26/02:30am 23.1 26.3 21.2 89 1.2 E 6 9 3 5 1015.5 1015.3 0.0
26/02:00am 23.2 27.4 20.9 87 1.5 CALM 0 0 0 0 1015.6 1015.4 0.0
26/01:30am 23.1 27.5 21.4 90 1.1 CALM 0 2 0 1 1015.9 1015.7 0.0
26/01:00am 22.9 27.0 20.8 88 1.4 CALM 0 0 0 0 1016.1 1015.9 0.0
26/12:30am 23.4 27.8 21.3 88 1.4 CALM 0 0 0 0 1016.5 1016.3 0.0
26/12:00am 23.1 27.2 20.8 87 1.5 CALM 0 0 0 0 1016.9 1016.7 0.0
 
Date/Time
EST
Temp
°C
App
Temp
°C
Dew
Point
Rel
Hum
%
Delta-T
°C
Wind Press
QNH
hPa
Press
MSL
hPa
Rain
since 9 am
mm
Dir
 
Spd
km/h
Gust
km/h
Spd
kts
Gust
kts
25/11:30pm 23.6 27.8 20.9 85 1.8 CALM 0 2 0 1 1017.0 1016.8 0.0
25/11:00pm 23.4 27.6 20.9 86 1.6 CALM 0 0 0 0 1017.0 1016.8 0.0
25/10:30pm 23.6 27.5 20.3 82 2.1 CALM 0 0 0 0 1016.9 1016.7 0.0
25/10:00pm 23.9 27.8 20.4 81 2.3 CALM 0 0 0 0 1016.8 1016.6 0.0
25/09:30pm 24.1 27.7 20.6 81 2.3 NNW 2 4 1 2 1016.6 1016.4 0.0
25/09:00pm 23.9 27.4 20.4 81 2.3 NE 2 6 1 3 1016.0 1015.8 0.0
25/08:30pm 23.8 26.4 20.1 80 2.4 NNE 6 9 3 5 1015.4 1015.2 0.0
25/08:00pm 24.1 26.8 20.2 79 2.5 NNE 6 9 3 5 1014.7 1014.5 0.0
25/07:30pm 24.5 27.0 20.2 77 2.8 N 7 11 4 6 1014.3 1014.1 0.0
25/07:00pm 24.8 27.2 20.1 75 3.1 NNE 7 13 4 7 1013.8 1013.6 0.0
25/06:30pm 25.4 27.3 19.8 71 3.6 NNE 9 13 5 7 1013.3 1013.1 0.0
25/06:00pm 26.1 28.3 19.5 67 4.3 NNE 7 13 4 7 1012.8 1012.6 0.0
25/05:30pm 26.9 28.3 19.5 64 4.8 NNE 11 17 6 9 1012.5 1012.3 0.0
25/05:00pm 27.7 28.5 19.0 59 5.6 NNE 13 20 7 11 1012.1 1011.9 0.0
25/04:30pm 28.8 29.8 18.6 54 6.6 NNE 11 17 6 9 1011.9 1011.6 0.0
25/04:00pm 29.4 29.4 18.2 51 7.2 ENE 15 24 8 13 1011.8 1011.5 0.0
25/03:30pm 29.8 29.7 17.9 48 7.6 NE 15 26 8 14 1011.9 1011.6 0.0
25/03:00pm 30.6 30.2 18.0 47 8.1 ENE 17 26 9 14 1012.0 1011.8 0.0
25/02:30pm 30.3 29.2 17.7 46 8.0 ENE 20 30 11 16 1012.1 1011.9 0.0
25/02:00pm 30.8 29.9 18.2 47 8.1 E 20 30 11 16 1012.2 1012.0 0.0
25/01:30pm 31.2 30.7 16.8 42 9.1 NE 15 20 8 11 1012.4 1012.2 0.0
25/01:00pm 31.3 29.2 16.1 40 9.5 ENE 22 30 12 16 1012.7 1012.5 0.0
25/12:30pm 32.4 30.2 9.2 24 13.1 N 11 28 6 15 1013.2 1013.0 0.0
25/12:00pm 31.7 30.4 9.3 25 12.6 W 6 13 3 7 1013.8 1013.6 0.0
25/11:30am 31.2 29.5 10.0 27 12.1 NW 9 19 5 10 1014.2 1014.0 0.0
25/11:00am 30.5 29.4 11.9 31 10.9 NNW 9 22 5 12 1014.8 1014.6 0.0
25/10:30am 29.2 27.8 13.4 38 9.4 N 13 22 7 12 1015.3 1015.1 0.0
25/10:00am 28.5 28.1 14.0 41 8.7 N 9 20 5 11 1015.6 1015.4 0.0
25/09:30am 28.0 27.5 15.0 45 7.9 NNW 11 19 6 10 1015.8 1015.6 0.0
25/09:00am 27.0 25.8 14.1 45 7.7 N 13 22 7 12 1016.2 1016.0 0.0
25/08:30am 26.6 25.8 14.0 46 7.5 NNW 11 17 6 9 1016.5 1016.3 0.0
25/08:00am 25.6 25.3 14.4 50 6.7 NNW 9 19 5 10 1016.6 1016.4 0.0
25/07:30am 24.9 25.4 16.6 60 5.1 NNW 9 20 5 11 1016.5 1016.3 0.0
25/07:00am 24.0 24.5 17.5 67 4.0 NW 11 19 6 10 1016.7 1016.5 0.0
25/06:30am 23.5 25.4 18.6 74 3.1 N 6 13 3 7 1016.0 1015.8 0.0
25/06:00am 21.4 23.9 18.2 82 2.0 NNW 2 6 1 3 1015.9 1015.7 0.0
25/05:30am 20.0 22.2 18.3 90 1.1 NNW 4 7 2 4 1015.3 1015.1 0.0
25/05:00am 18.8 20.9 17.3 91 0.9 N 2 6 1 3 1015.4 1015.2 0.0
25/04:30am 18.8 21.4 17.5 92 0.8 CALM 0 0 0 0 1015.3 1015.1 0.0
25/04:00am 18.9 21.5 17.4 91 0.9 CALM 0 0 0 0 1015.1 1014.9 0.0
25/03:30am 19.0 21.5 17.3 90 1.0 CALM 0 0 0 0 1014.9 1014.7 0.0
25/03:00am 19.2 21.8 17.5 90 1.0 CALM 0 0 0 0 1014.7 1014.5 0.0
25/02:30am 19.7 22.4 17.7 88 1.2 CALM 0 0 0 0 1014.7 1014.5 0.0
25/02:00am 20.0 22.7 17.8 87 1.4 CALM 0 0 0 0 1014.6 1014.4 0.0
25/01:30am 20.5 22.8 17.7 84 1.7 NNW 2 2 1 1 1014.9 1014.7 0.0
25/01:00am 21.5 23.2 18.1 81 2.1 NNW 6 7 3 4 1015.2 1015.0 0.0
25/12:30am 21.9 24.1 18.3 80 2.3 N 4 7 2 4 1015.5 1015.3 0.0
25/12:00am 22.2 24.0 18.2 78 2.5 N 6 9 3 5 1015.8 1015.6 0.0
 
Date/Time
EST
Temp
°C
App
Temp
°C
Dew
Point
Rel
Hum
%
Delta-T
°C
Wind Press
QNH
hPa
Press
MSL
hPa
Rain
since 9 am
mm
Dir
 
Spd
km/h
Gust
km/h
Spd
kts
Gust
kts
24/11:30pm 22.6 24.4 18.4 77 2.6 N 6 11 3 6 1016.0 1015.8 0.0
24/11:00pm 23.0 25.3 18.5 76 2.8 N 4 6 2 3 1016.1 1015.9 0.0
24/10:30pm 23.1 24.8 18.6 76 2.8 N 7 13 4 7 1016.2 1016.0 0.0
24/10:00pm 23.4 24.3 18.5 74 3.1 N 11 20 6 11 1016.2 1016.0 0.0
24/09:30pm 23.7 24.7 18.6 73 3.2 NNW 11 19 6 10 1016.4 1016.2 0.0
24/09:00pm 23.8 25.7 18.9 74 3.1 N 7 11 4 6 1016.0 1015.8 0.0
24/08:30pm 23.8 25.3 18.9 74 3.1 N 9 13 5 7 1015.5 1015.3 0.0
24/08:00pm 23.8 24.9 18.9 74 3.1 N 11 17 6 9 1015.3 1015.1 0.0
24/07:30pm 23.8 25.3 18.9 74 3.1 N 9 15 5 8 1014.9 1014.7 0.0
24/07:00pm 23.8 24.9 18.9 74 3.1 NNE 11 17 6 9 1014.5 1014.3 0.0
24/06:30pm 24.0 24.6 18.6 72 3.4 NNE 13 22 7 12 1014.2 1014.0 0.0
24/06:00pm 24.8 25.7 18.5 68 4.0 NNE 11 17 6 9 1013.8 1013.6 0.0
24/05:30pm 25.6 25.6 18.0 63 4.8 NNE 15 24 8 13 1013.5 1013.3 0.0
24/05:00pm 26.0 25.8 17.6 60 5.3 NNE 15 28 8 15 1013.3 1013.1 0.0
24/04:30pm 27.1 27.4 17.8 56 5.9 NNE 13 20 7 11 1013.2 1013.0 0.0
24/04:00pm 27.7 28.1 18.1 56 6.1 NNE 13 20 7 11 1013.2 1013.0 0.0
24/03:30pm 28.0 27.8 17.5 52 6.6 N 15 22 8 12 1013.4 1013.2 0.0
24/03:00pm 28.8 28.0 18.0 52 6.9 E 19 28 10 15 1013.4 1013.2 0.0
24/02:30pm 28.5 27.0 17.7 52 6.9 ENE 22 30 12 16 1013.7 1013.5 0.0
24/02:00pm 29.1 28.3 18.5 52 6.8 ENE 20 33 11 18 1014.1 1013.9 0.0
24/01:30pm 29.6 29.5 18.7 52 7.0 ENE 17 28 9 15 1014.5 1014.3 0.0
24/01:00pm 29.4 28.8 18.8 53 6.9 ENE 20 28 11 15 1014.7 1014.5 0.0
24/12:30pm 29.8 29.4 18.9 52 7.1 ENE 19 28 10 15 1015.2 1015.0 0.0
24/12:00pm 29.3 28.1 18.4 51 7.0 E 22 30 12 16 1015.4 1015.2 0.0
24/11:30am 30.1 29.8 15.4 41 9.1 NNE 11 22 6 12 1015.9 1015.7 0.0
24/11:00am 29.6 29.4 14.6 40 9.1 N 9 19 5 10 1016.6 1016.4 0.0
24/10:30am 29.1 28.6 14.9 42 8.7 N 11 22 6 12 1017.0 1016.8 0.0
24/10:00am 28.6 28.1 14.8 43 8.4 N 11 24 6 13 1017.5 1017.3 0.0
24/09:30am 28.7 27.9 15.2 43 8.3 NNE 13 19 7 10 1017.9 1017.7 0.0
24/09:00am 28.3 27.8 14.9 44 8.1 NNE 11 20 6 11 1018.1 1017.9 0.0
24/08:30am 27.4 26.6 14.1 44 8.0 N 11 19 6 10 1018.2 1018.0 0.0
24/08:00am 26.9 26.1 14.0 45 7.7 NNW 11 20 6 11 1018.3 1018.1 0.0
24/07:30am 26.3 26.5 15.7 52 6.5 N 9 15 5 8 1018.3 1018.1 0.0
24/07:00am 25.5 26.5 16.9 59 5.3 N 7 13 4 7 1018.2 1018.0 0.0
24/06:30am 24.3 26.0 18.5 70 3.7 N 7 13 4 7 1018.2 1018.0 0.0
24/06:00am 23.0 25.2 19.2 79 2.4 N 6 9 3 5 1018.0 1017.8 0.0
24/05:30am 21.8 24.4 19.2 85 1.7 NNW 4 7 2 4 1017.7 1017.5 0.0
24/05:00am 20.8 23.4 18.4 86 1.5 NNW 2 6 1 3 1017.6 1017.4 0.0
24/04:30am 21.5 23.9 18.9 85 1.6 NW 4 7 2 4 1017.5 1017.3 0.0
24/04:00am 21.8 25.1 19.2 85 1.6 CALM 0 4 0 2 1017.2 1017.0 0.0
24/03:30am 21.8 24.4 19.2 85 1.7 NW 4 7 2 4 1017.1 1016.9 0.0
24/03:00am 21.8 24.3 19.0 84 1.8 NW 4 7 2 4 1016.9 1016.7 0.0
24/02:30am 21.8 24.3 19.0 84 1.8 NW 4 6 2 3 1016.8 1016.6 0.0
24/02:00am 21.9 24.4 19.1 84 1.8 NW 4 6 2 3 1017.0 1016.8 0.0
24/01:30am 22.1 24.6 19.1 83 1.9 NNW 4 6 2 3 1017.0 1016.8 0.0
24/01:00am 22.4 25.4 19.2 82 2.0 NNW 2 6 1 3 1017.2 1017.0 0.0
24/12:30am 22.5 25.5 19.3 82 2.0 N 2 6 1 3 1017.3 1017.1 0.0
24/12:00am 22.9 25.5 19.3 80 2.3 N 4 7 2 4 1017.6 1017.4 0.0
 
Date/Time
EST
Temp
°C
App
Temp
°C
Dew
Point
Rel
Hum
%
Delta-T
°C
Wind Press
QNH
hPa
Press
MSL
hPa
Rain
since 9 am
mm
Dir
 
Spd
km/h
Gust
km/h
Spd
kts
Gust
kts
23/11:30pm 23.2 25.5 19.4 79 2.4 N 6 11 3 6 1017.6 1017.4 0.0
23/11:00pm 23.2 25.6 19.6 80 2.3 N 6 11 3 6 1017.3 1017.1 0.0
23/10:30pm 23.1 25.4 19.5 80 2.3 N 6 9 3 5 1017.5 1017.3 0.0
23/10:00pm 23.0 25.2 19.2 79 2.4 NNW 6 7 3 4 1017.5 1017.3 0.0
23/09:30pm 23.1 25.6 19.1 78 2.5 N 4 7 2 4 1017.5 1017.3 0.0
23/09:00pm 23.0 25.9 19.0 78 2.5 NNW 2 4 1 2 1017.2 1017.0 0.0
23/08:30pm 23.5 26.1 19.2 77 2.7 N 4 7 2 4 1017.1 1016.9 0.0
23/08:00pm 23.7 26.3 19.2 76 2.9 N 4 7 2 4 1016.6 1016.4 0.0
23/07:30pm 24.1 26.1 19.2 74 3.1 N 7 13 4 7 1016.1 1015.9 0.0
23/07:00pm 24.4 25.9 18.8 71 3.6 N 9 13 5 7 1015.7 1015.5 0.0
23/06:30pm 25.0 26.7 18.0 65 4.4 N 6 9 3 5 1015.5 1015.3 0.0
23/06:00pm 25.7 26.6 17.6 61 5.1 NNE 9 15 5 8 1014.9 1014.7 0.0
23/05:30pm 26.5 26.7 16.7 55 6.1 N 11 17 6 9 1014.7 1014.5 0.0
23/05:00pm 27.5 27.4 16.1 49 7.0 N 11 19 6 10 1014.5 1014.3 0.0
23/04:30pm 28.4 27.7 16.3 47 7.5 NE 15 20 8 11 1014.3 1014.1 0.0
23/04:00pm 28.7 28.1 16.6 48 7.6 N 15 22 8 12 1014.5 1014.3 0.0
23/03:30pm 29.7 29.3 16.1 43 8.5 NNE 13 20 7 11 1014.6 1014.4 0.0
23/03:00pm 30.0 29.6 17.1 46 8.2 NE 15 20 8 11 1014.9 1014.7 0.0
23/02:30pm 30.0 29.6 17.1 46 8.2 NE 15 24 8 13 1015.0 1014.8 0.0
23/02:00pm 30.1 29.3 17.2 46 8.2 ENE 17 28 9 15 1015.1 1014.9 0.0
23/01:30pm 29.9 28.8 17.4 47 7.9 ENE 19 28 10 15 1015.5 1015.3 0.0
23/01:00pm 29.5 28.6 18.3 51 7.2 E 20 33 11 18 1015.9 1015.7 0.0
23/12:30pm 30.1 29.8 19.2 52 7.1 ENE 19 28 10 15 1016.4 1016.2 0.0
23/12:00pm 29.8 30.5 18.9 52 7.1 E 13 19 7 10 1016.5 1016.3 0.0
23/11:30am 30.4 31.2 16.4 43 8.8 N 7 15 4 8 1017.0 1016.8 0.0
23/11:00am 30.7 32.2 17.7 45 8.3 NNW 6 13 3 7 1017.4 1017.2 0.0

Other Formats:

Comma delimited format used in spreadsheet applications
http://www.bom.gov.au/fwo/IDQ60801/IDQ60801.95572.axf

JavaScript Object Notation format (JSON) in row-major order
http://www.bom.gov.au/fwo/IDQ60801/IDQ60801.95572.json